sensor_id;sensor_type;location;lat;lon;timestamp;pressure;altitude;pressure_sealevel;temperature
13497;BMP180;6820;49.374;8.452;2022-12-29T00:03:37;100007.88;;;16.24
13497;BMP180;6820;49.374;8.452;2022-12-29T00:07:39;100011.34;;;16.26
13497;BMP180;6820;49.374;8.452;2022-12-29T00:11:41;100009.84;;;16.32
13497;BMP180;6820;49.374;8.452;2022-12-29T00:15:43;100014.38;;;16.41
13497;BMP180;6820;49.374;8.452;2022-12-29T00:19:44;100004.22;;;16.42
13497;BMP180;6820;49.374;8.452;2022-12-29T00:24:05;99999.03;;;16.41
13497;BMP180;6820;49.374;8.452;2022-12-29T00:28:16;100001.78;;;16.46
13497;BMP180;6820;49.374;8.452;2022-12-29T00:32:37;100000.09;;;16.47
13497;BMP180;6820;49.374;8.452;2022-12-29T00:36:57;99993.31;;;16.47
13497;BMP180;6820;49.374;8.452;2022-12-29T00:41:00;99998.50;;;16.50
13497;BMP180;6820;49.374;8.452;2022-12-29T00:45:20;100009.63;;;16.52
13497;BMP180;6820;49.374;8.452;2022-12-29T00:49:22;100002.09;;;16.55
13497;BMP180;6820;49.374;8.452;2022-12-29T00:53:33;100013.22;;;16.57
13497;BMP180;6820;49.374;8.452;2022-12-29T00:57:35;100002.22;;;16.60
13497;BMP180;6820;49.374;8.452;2022-12-29T01:01:37;100004.91;;;16.64
13497;BMP180;6820;49.374;8.452;2022-12-29T01:05:39;100010.13;;;16.67
13497;BMP180;6820;49.374;8.452;2022-12-29T01:09:41;100006.72;;;16.68
13497;BMP180;6820;49.374;8.452;2022-12-29T01:14:01;100002.44;;;16.67
13497;BMP180;6820;49.374;8.452;2022-12-29T01:18:04;99998.38;;;16.74
13497;BMP180;6820;49.374;8.452;2022-12-29T01:22:06;100000.25;;;16.79
13497;BMP180;6820;49.374;8.452;2022-12-29T01:26:09;99994.44;;;16.84
13497;BMP180;6820;49.374;8.452;2022-12-29T01:30:11;99984.41;;;16.90
13497;BMP180;6820;49.374;8.452;2022-12-29T01:34:13;99993.91;;;16.94
13497;BMP180;6820;49.374;8.452;2022-12-29T01:38:14;99993.97;;;16.96
13497;BMP180;6820;49.374;8.452;2022-12-29T01:42:21;99992.28;;;16.98
13497;BMP180;6820;49.374;8.452;2022-12-29T01:46:43;99994.28;;;17.06
13497;BMP180;6820;49.374;8.452;2022-12-29T01:50:52;99990.94;;;17.08
13497;BMP180;6820;49.374;8.452;2022-12-29T01:54:55;99984.06;;;17.07
13497;BMP180;6820;49.374;8.452;2022-12-29T01:59:02;99992.28;;;16.98
13497;BMP180;6820;49.374;8.452;2022-12-29T02:03:07;99990.56;;;16.97
13497;BMP180;6820;49.374;8.452;2022-12-29T02:07:21;99989.00;;;17.02
13497;BMP180;6820;49.374;8.452;2022-12-29T02:11:25;99986.59;;;17.06
13497;BMP180;6820;49.374;8.452;2022-12-29T02:15:41;99985.03;;;17.11
13497;BMP180;6820;49.374;8.452;2022-12-29T02:37:58;99982.53;;;17.12
13497;BMP180;6820;49.374;8.452;2022-12-29T02:46:37;99963.28;;;17.25
13497;BMP180;6820;49.374;8.452;2022-12-29T02:51:02;99982.16;;;17.28
13497;BMP180;6820;49.374;8.452;2022-12-29T02:55:05;99960.03;;;17.30
13497;BMP180;6820;49.374;8.452;2022-12-29T02:59:09;99961.88;;;17.36
13497;BMP180;6820;49.374;8.452;2022-12-29T03:03:33;99961.97;;;17.38
13497;BMP180;6820;49.374;8.452;2022-12-29T03:17:28;99934.72;;;17.42
13497;BMP180;6820;49.374;8.452;2022-12-29T03:21:39;99932.25;;;17.45
13497;BMP180;6820;49.374;8.452;2022-12-29T03:26:07;99917.78;;;17.47
13497;BMP180;6820;49.374;8.452;2022-12-29T03:30:10;99910.25;;;17.51
13497;BMP180;6820;49.374;8.452;2022-12-29T03:34:13;99905.19;;;17.54
13497;BMP180;6820;49.374;8.452;2022-12-29T03:38:59;99900.16;;;17.59
13497;BMP180;6820;49.374;8.452;2022-12-29T03:42:41;99895.16;;;17.63
13497;BMP180;6820;49.374;8.452;2022-12-29T03:46:43;99877.22;;;17.63
13497;BMP180;6820;49.374;8.452;2022-12-29T03:50:45;99875.56;;;17.65
13497;BMP180;6820;49.374;8.452;2022-12-29T03:54:47;99877.28;;;17.66
13497;BMP180;6820;49.374;8.452;2022-12-29T03:58:49;99869.53;;;17.63
13497;BMP180;6820;49.374;8.452;2022-12-29T04:03:01;99859.34;;;17.65
13497;BMP180;6820;49.374;8.452;2022-12-29T04:07:03;99863.63;;;17.66
13497;BMP180;6820;49.374;8.452;2022-12-29T04:11:05;99862.78;;;17.67
13497;BMP180;6820;49.374;8.452;2022-12-29T04:15:08;99862.84;;;17.69
13497;BMP180;6820;49.374;8.452;2022-12-29T04:19:10;99859.50;;;17.72
13497;BMP180;6820;49.374;8.452;2022-12-29T04:23:12;99860.41;;;17.74
13497;BMP180;6820;49.374;8.452;2022-12-29T04:27:14;99861.34;;;17.77
13497;BMP180;6820;49.374;8.452;2022-12-29T04:31:29;99855.41;;;17.78
13497;BMP180;6820;49.374;8.452;2022-12-29T04:35:32;99850.22;;;17.75
13497;BMP180;6820;49.374;8.452;2022-12-29T04:39:34;99846.75;;;17.73
13497;BMP180;6820;49.374;8.452;2022-12-29T04:43:37;99868.16;;;17.75
13497;BMP180;6820;49.374;8.452;2022-12-29T04:48:11;99857.91;;;17.75
13497;BMP180;6820;49.374;8.452;2022-12-29T04:52:32;99863.81;;;17.73
13497;BMP180;6820;49.374;8.452;2022-12-29T04:56:36;99867.25;;;17.75
13497;BMP180;6820;49.374;8.452;2022-12-29T05:00:38;99878.34;;;17.74
13497;BMP180;6820;49.374;8.452;2022-12-29T05:04:40;99886.09;;;17.75
13497;BMP180;6820;49.374;8.452;2022-12-29T05:08:41;99886.97;;;17.77
13497;BMP180;6820;49.374;8.452;2022-12-29T05:12:43;99868.16;;;17.77
13497;BMP180;6820;49.374;8.452;2022-12-29T05:16:47;99870.72;;;17.77
13497;BMP180;6820;49.374;8.452;2022-12-29T05:20:51;99863.84;;;17.74
13497;BMP180;6820;49.374;8.452;2022-12-29T05:24:54;99872.28;;;17.70
13497;BMP180;6820;49.374;8.452;2022-12-29T05:28:57;99865.47;;;17.71
13497;BMP180;6820;49.374;8.452;2022-12-29T05:32:59;99864.81;;;17.78
13497;BMP180;6820;49.374;8.452;2022-12-29T05:37:01;99862.25;;;17.79
13497;BMP180;6820;49.374;8.452;2022-12-29T05:41:04;99872.38;;;17.75
13497;BMP180;6820;49.374;8.452;2022-12-29T05:45:26;99866.31;;;17.70
13497;BMP180;6820;49.374;8.452;2022-12-29T05:49:59;99861.91;;;17.65
13497;BMP180;6820;49.374;8.452;2022-12-29T05:54:07;99856.84;;;17.68
13497;BMP180;6820;49.374;8.452;2022-12-29T05:58:08;99861.97;;;17.68
13497;BMP180;6820;49.374;8.452;2022-12-29T06:02:11;99870.66;;;17.72
13497;BMP180;6820;49.374;8.452;2022-12-29T06:06:13;99862.97;;;17.74
13497;BMP180;6820;49.374;8.452;2022-12-29T06:10:15;99851.88;;;17.75
13497;BMP180;6820;49.374;8.452;2022-12-29T06:14:37;99842.53;;;17.75
13497;BMP180;6820;49.374;8.452;2022-12-29T06:18:39;99852.00;;;17.78
13497;BMP180;6820;49.374;8.452;2022-12-29T06:22:42;99848.53;;;17.77
13497;BMP180;6820;49.374;8.452;2022-12-29T06:26:44;99845.97;;;17.77
13497;BMP180;6820;49.374;8.452;2022-12-29T06:30:47;99834.84;;;17.77
13497;BMP180;6820;49.374;8.452;2022-12-29T06:34:49;99837.50;;;17.80
13497;BMP180;6820;49.374;8.452;2022-12-29T06:38:51;99831.56;;;17.81
13497;BMP180;6820;49.374;8.452;2022-12-29T06:42:57;99831.56;;;17.82
13497;BMP180;6820;49.374;8.452;2022-12-29T06:47:37;99833.34;;;17.85
13497;BMP180;6820;49.374;8.452;2022-12-29T06:51:39;99827.41;;;17.87
13497;BMP180;6820;49.374;8.452;2022-12-29T06:55:42;99830.81;;;17.86
13497;BMP180;6820;49.374;8.452;2022-12-29T06:59:43;99830.03;;;17.89
13497;BMP180;6820;49.374;8.452;2022-12-29T07:03:45;99826.56;;;17.88
13497;BMP180;6820;49.374;8.452;2022-12-29T07:07:46;99829.94;;;17.86
13497;BMP180;6820;49.374;8.452;2022-12-29T07:11:48;99829.97;;;17.87
13497;BMP180;6820;49.374;8.452;2022-12-29T07:15:50;99840.28;;;17.89
13497;BMP180;6820;49.374;8.452;2022-12-29T07:19:51;99844.53;;;17.88
13497;BMP180;6820;49.374;8.452;2022-12-29T07:23:53;99851.41;;;17.89
13497;BMP180;6820;49.374;8.452;2022-12-29T07:27:55;99860.03;;;17.93
13497;BMP180;6820;49.374;8.452;2022-12-29T07:31:57;99854.03;;;17.94
13497;BMP180;6820;49.374;8.452;2022-12-29T07:35:59;99850.59;;;17.92
13497;BMP180;6820;49.374;8.452;2022-12-29T07:40:01;99849.75;;;17.91
13497;BMP180;6820;49.374;8.452;2022-12-29T07:44:04;99848.13;;;17.95
13497;BMP180;6820;49.374;8.452;2022-12-29T07:48:11;99851.59;;;17.98
13497;BMP180;6820;49.374;8.452;2022-12-29T07:52:13;99862.91;;;18.04
13497;BMP180;6820;49.374;8.452;2022-12-29T07:56:14;99854.41;;;18.07
13497;BMP180;6820;49.374;8.452;2022-12-29T08:00:16;99850.19;;;18.09
13497;BMP180;6820;49.374;8.452;2022-12-29T08:04:17;99869.97;;;18.13
13497;BMP180;6820;49.374;8.452;2022-12-29T08:08:20;99867.47;;;18.16
13497;BMP180;6820;49.374;8.452;2022-12-29T08:12:21;99875.31;;;18.23
13497;BMP180;6820;49.374;8.452;2022-12-29T08:16:23;99874.59;;;18.29
13497;BMP180;6820;49.374;8.452;2022-12-29T08:20:25;99888.38;;;18.33
13497;BMP180;6820;49.374;8.452;2022-12-29T08:24:27;99903.00;;;18.37
13497;BMP180;6820;49.374;8.452;2022-12-29T08:28:28;99898.84;;;18.42
13497;BMP180;6820;49.374;8.452;2022-12-29T08:32:30;99896.41;;;18.48
13497;BMP180;6820;49.374;8.452;2022-12-29T08:36:32;99902.47;;;18.52
13497;BMP180;6820;49.374;8.452;2022-12-29T08:40:33;99900.84;;;18.55
13497;BMP180;6820;49.374;8.452;2022-12-29T08:44:35;99902.72;;;18.62
13497;BMP180;6820;49.374;8.452;2022-12-29T08:48:37;99897.84;;;18.74
13497;BMP180;6820;49.374;8.452;2022-12-29T08:52:38;99906.53;;;18.82
13497;BMP180;6820;49.374;8.452;2022-12-29T08:56:40;99909.22;;;18.86
13497;BMP180;6820;49.374;8.452;2022-12-29T09:00:42;99911.06;;;18.92
13497;BMP180;6820;49.374;8.452;2022-12-29T09:04:45;99905.94;;;18.92
13497;BMP180;6820;49.374;8.452;2022-12-29T09:08:47;99904.94;;;18.87
13497;BMP180;6820;49.374;8.452;2022-12-29T09:12:48;99924.66;;;18.88
13497;BMP180;6820;49.374;8.452;2022-12-29T09:16:51;99916.13;;;18.89
13497;BMP180;6820;49.374;8.452;2022-12-29T09:21:11;99929.06;;;18.92
13497;BMP180;6820;49.374;8.452;2022-12-29T09:25:13;99951.22;;;18.90
13497;BMP180;6820;49.374;8.452;2022-12-29T09:29:15;99952.00;;;18.86
13497;BMP180;6820;49.374;8.452;2022-12-29T09:33:17;99950.34;;;18.88
13497;BMP180;6820;49.374;8.452;2022-12-29T09:37:19;99953.91;;;18.92
13497;BMP180;6820;49.374;8.452;2022-12-29T09:41:26;99955.66;;;18.95
13497;BMP180;6820;49.374;8.452;2022-12-29T09:45:41;99958.31;;;18.98
13497;BMP180;6820;49.374;8.452;2022-12-29T09:49:51;99955.00;;;19.05
13497;BMP180;6820;49.374;8.452;2022-12-29T09:55:15;99965.41;;;19.11
13497;BMP180;6820;49.374;8.452;2022-12-29T09:59:17;99954.28;;;19.10
13497;BMP180;6820;49.374;8.452;2022-12-29T10:03:19;99968.78;;;19.08
13497;BMP180;6820;49.374;8.452;2022-12-29T10:07:47;99963.00;;;19.17
13497;BMP180;6820;49.374;8.452;2022-12-29T10:16:45;99942.72;;;19.30
13497;BMP180;6820;49.374;8.452;2022-12-29T10:21:16;99965.94;;;19.36
13497;BMP180;6820;49.374;8.452;2022-12-29T10:25:20;99968.56;;;19.39
13497;BMP180;6820;49.374;8.452;2022-12-29T10:29:37;99960.22;;;19.49
13497;BMP180;6820;49.374;8.452;2022-12-29T10:33:42;99969.63;;;19.50
13497;BMP180;6820;49.374;8.452;2022-12-29T10:42:17;99969.38;;;19.36
13497;BMP180;6820;49.374;8.452;2022-12-29T10:46:33;99969.31;;;19.35
13497;BMP180;6820;49.374;8.452;2022-12-29T10:50:37;99971.13;;;19.39
13497;BMP180;6820;49.374;8.452;2022-12-29T10:55:04;99977.28;;;19.47
13497;BMP180;6820;49.374;8.452;2022-12-29T10:59:29;99978.47;;;19.62
13497;BMP180;6820;49.374;8.452;2022-12-29T11:03:38;99977.03;;;19.77
13497;BMP180;6820;49.374;8.452;2022-12-29T11:07:43;99974.97;;;20.04
13497;BMP180;6820;49.374;8.452;2022-12-29T11:11:44;99965.78;;;20.19
13497;BMP180;6820;49.374;8.452;2022-12-29T11:15:49;99965.09;;;20.29
13497;BMP180;6820;49.374;8.452;2022-12-29T11:19:51;99958.19;;;20.26
13497;BMP180;6820;49.374;8.452;2022-12-29T11:24:04;99972.78;;;20.27
13497;BMP180;6820;49.374;8.452;2022-12-29T11:28:15;99962.19;;;20.10
13497;BMP180;6820;49.374;8.452;2022-12-29T11:32:23;99958.56;;;19.97
13497;BMP180;6820;49.374;8.452;2022-12-29T11:36:29;99972.38;;;20.04
13497;BMP180;6820;49.374;8.452;2022-12-29T11:40:31;99975.91;;;20.09
13497;BMP180;6820;49.374;8.452;2022-12-29T11:44:43;99977.63;;;20.10
13497;BMP180;6820;49.374;8.452;2022-12-29T11:48:46;99984.44;;;20.06
13497;BMP180;6820;49.374;8.452;2022-12-29T11:52:50;99974.03;;;20.00
13497;BMP180;6820;49.374;8.452;2022-12-29T11:57:09;99975.66;;;19.94
13497;BMP180;6820;49.374;8.452;2022-12-29T12:01:36;99973.47;;;19.72
13497;BMP180;6820;49.374;8.452;2022-12-29T12:05:44;99995.44;;;19.55
13497;BMP180;6820;49.374;8.452;2022-12-29T12:09:54;100001.13;;;19.40
13497;BMP180;6820;49.374;8.452;2022-12-29T12:14:20;99974.56;;;19.39
13497;BMP180;6820;49.374;8.452;2022-12-29T12:23:40;99974.47;;;19.76
13497;BMP180;6820;49.374;8.452;2022-12-29T12:27:58;99965.22;;;19.86
13497;BMP180;6820;49.374;8.452;2022-12-29T12:32:09;99973.91;;;19.91
13497;BMP180;6820;49.374;8.452;2022-12-29T12:40:58;99965.09;;;19.79
13497;BMP180;6820;49.374;8.452;2022-12-29T12:45:26;99981.78;;;19.56
13497;BMP180;6820;49.374;8.452;2022-12-29T12:49:50;99966.84;;;19.38
13497;BMP180;6820;49.374;8.452;2022-12-29T12:54:31;99962.03;;;19.13
13497;BMP180;6820;49.374;8.452;2022-12-29T12:59:06;99985.38;;;18.86
13497;BMP180;6820;49.374;8.452;2022-12-29T13:07:59;99968.03;;;18.76
13497;BMP180;6820;49.374;8.452;2022-12-29T13:24:51;99958.59;;;19.13
13497;BMP180;6820;49.374;8.452;2022-12-29T13:29:11;99961.22;;;19.14
13497;BMP180;6820;49.374;8.452;2022-12-29T13:37:31;99969.94;;;18.84
13497;BMP180;6820;49.374;8.452;2022-12-29T13:41:43;99972.59;;;18.89
13497;BMP180;6820;49.374;8.452;2022-12-29T13:45:50;99977.84;;;18.92
13497;BMP180;6820;49.374;8.452;2022-12-29T13:49:58;99977.03;;;18.92
13497;BMP180;6820;49.374;8.452;2022-12-29T13:54:13;99966.81;;;18.97
13497;BMP180;6820;49.374;8.452;2022-12-29T13:58:48;99966.88;;;19.00
13497;BMP180;6820;49.374;8.452;2022-12-29T14:03:24;99981.09;;;18.86
13497;BMP180;6820;49.374;8.452;2022-12-29T14:07:38;99988.50;;;18.73
13497;BMP180;6820;49.374;8.452;2022-12-29T14:11:40;99994.34;;;18.66
13497;BMP180;6820;49.374;8.452;2022-12-29T14:15:45;99994.72;;;18.46
13497;BMP180;6820;49.374;8.452;2022-12-29T14:19:51;99997.75;;;18.30
13497;BMP180;6820;49.374;8.452;2022-12-29T14:23:54;100011.25;;;18.23
13497;BMP180;6820;49.374;8.452;2022-12-29T14:27:55;100015.34;;;18.17
13497;BMP180;6820;49.374;8.452;2022-12-29T14:31:57;100022.59;;;18.00
13497;BMP180;6820;49.374;8.452;2022-12-29T14:36:20;100023.03;;;17.85
13497;BMP180;6820;49.374;8.452;2022-12-29T14:40:24;100018.75;;;17.85
13497;BMP180;6820;49.374;8.452;2022-12-29T14:44:27;99998.38;;;17.90
13497;BMP180;6820;49.374;8.452;2022-12-29T14:48:36;100000.34;;;17.99
13497;BMP180;6820;49.374;8.452;2022-12-29T14:53:01;100018.31;;;18.01
13497;BMP180;6820;49.374;8.452;2022-12-29T14:57:08;100023.63;;;18.05
13497;BMP180;6820;49.374;8.452;2022-12-29T15:05:50;100023.53;;;18.02
13497;BMP180;6820;49.374;8.452;2022-12-29T15:10:08;100004.69;;;18.02
13497;BMP180;6820;49.374;8.452;2022-12-29T15:14:36;99987.47;;;17.98
13497;BMP180;6820;49.374;8.452;2022-12-29T15:18:38;99984.06;;;17.98
13497;BMP180;6820;49.374;8.452;2022-12-29T15:22:44;100018.25;;;17.98
13497;BMP180;6820;49.374;8.452;2022-12-29T15:26:48;100022.94;;;17.82
13497;BMP180;6820;49.374;8.452;2022-12-29T15:30:56;100033.59;;;17.65
13497;BMP180;6820;49.374;8.452;2022-12-29T15:34:58;100047.69;;;17.51
13497;BMP180;6820;49.374;8.452;2022-12-29T15:39:23;100055.13;;;17.42
13497;BMP180;6820;49.374;8.452;2022-12-29T15:47:46;100076.91;;;17.28
13497;BMP180;6820;49.374;8.452;2022-12-29T15:51:50;100075.19;;;17.27
13497;BMP180;6820;49.374;8.452;2022-12-29T15:55:52;100089.81;;;17.31
13497;BMP180;6820;49.374;8.452;2022-12-29T16:00:00;100088.47;;;17.43
13497;BMP180;6820;49.374;8.452;2022-12-29T16:04:14;100099.06;;;17.55
13497;BMP180;6820;49.374;8.452;2022-12-29T16:08:24;100104.50;;;17.66
13497;BMP180;6820;49.374;8.452;2022-12-29T16:12:34;100120.91;;;17.72
13497;BMP180;6820;49.374;8.452;2022-12-29T16:16:39;100109.88;;;17.74
13497;BMP180;6820;49.374;8.452;2022-12-29T16:20:41;100107.38;;;17.77
13497;BMP180;6820;49.374;8.452;2022-12-29T16:24:44;100107.38;;;17.77
13497;BMP180;6820;49.374;8.452;2022-12-29T16:28:48;100115.16;;;17.80
13497;BMP180;6820;49.374;8.452;2022-12-29T16:32:54;100120.28;;;17.80
13497;BMP180;6820;49.374;8.452;2022-12-29T16:40:59;100134.09;;;17.85
13497;BMP180;6820;49.374;8.452;2022-12-29T16:49:25;100154.63;;;17.85
13497;BMP180;6820;49.374;8.452;2022-12-29T16:53:32;100153.59;;;17.79
13497;BMP180;6820;49.374;8.452;2022-12-29T16:57:35;100143.97;;;17.72
13497;BMP180;6820;49.374;8.452;2022-12-29T17:01:38;100147.13;;;17.62
13497;BMP180;6820;49.374;8.452;2022-12-29T17:05:40;100135.00;;;17.57
13497;BMP180;6820;49.374;8.452;2022-12-29T17:09:42;100142.38;;;17.48
13497;BMP180;6820;49.374;8.452;2022-12-29T17:13:43;100147.34;;;17.42
13497;BMP180;6820;49.374;8.452;2022-12-29T17:17:46;100144.75;;;17.40
13497;BMP180;6820;49.374;8.452;2022-12-29T17:21:49;100143.59;;;17.31
13497;BMP180;6820;49.374;8.452;2022-12-29T17:25:53;100146.91;;;17.27
13497;BMP180;6820;49.374;8.452;2022-12-29T17:29:58;100142.34;;;17.19
13497;BMP180;6820;49.374;8.452;2022-12-29T17:34:02;100138.81;;;17.15
13497;BMP180;6820;49.374;8.452;2022-12-29T17:38:27;100132.78;;;17.13
13497;BMP180;6820;49.374;8.452;2022-12-29T17:42:29;100155.19;;;17.20
13497;BMP180;6820;49.374;8.452;2022-12-29T17:46:33;100152.91;;;17.29
13497;BMP180;6820;49.374;8.452;2022-12-29T17:50:35;100165.00;;;17.33
13497;BMP180;6820;49.374;8.452;2022-12-29T17:54:41;100160.91;;;17.38
13497;BMP180;6820;49.374;8.452;2022-12-29T17:58:43;100163.53;;;17.41
13497;BMP180;6820;49.374;8.452;2022-12-29T18:02:46;100148.13;;;17.39
13497;BMP180;6820;49.374;8.452;2022-12-29T18:06:49;100124.03;;;17.33
13497;BMP180;6820;49.374;8.452;2022-12-29T18:10:52;100103.28;;;17.26
13497;BMP180;6820;49.374;8.452;2022-12-29T18:14:55;100126.34;;;17.26
13497;BMP180;6820;49.374;8.452;2022-12-29T18:18:57;100129.69;;;17.23
13497;BMP180;6820;49.374;8.452;2022-12-29T18:22:58;100142.34;;;17.19
13497;BMP180;6820;49.374;8.452;2022-12-29T18:27:01;100138.72;;;17.12
13497;BMP180;6820;49.374;8.452;2022-12-29T18:31:03;100146.97;;;17.04
13497;BMP180;6820;49.374;8.452;2022-12-29T18:35:14;100145.06;;;16.99
13497;BMP180;6820;49.374;8.452;2022-12-29T18:39:17;100144.97;;;16.96
13497;BMP180;6820;49.374;8.452;2022-12-29T18:43:19;100144.06;;;16.94
13497;BMP180;6820;49.374;8.452;2022-12-29T18:47:21;100148.16;;;16.89
13497;BMP180;6820;49.374;8.452;2022-12-29T18:51:24;100157.44;;;16.85
13497;BMP180;6820;49.374;8.452;2022-12-29T18:55:27;100152.31;;;16.85
13497;BMP180;6820;49.374;8.452;2022-12-29T18:59:29;100153.00;;;16.80
13497;BMP180;6820;49.374;8.452;2022-12-29T19:03:31;100152.91;;;16.77
13497;BMP180;6820;49.374;8.452;2022-12-29T19:07:32;100150.94;;;16.70
13497;BMP180;6820;49.374;8.452;2022-12-29T19:11:34;100156.78;;;16.66
13497;BMP180;6820;49.374;8.452;2022-12-29T19:15:36;100149.91;;;16.65
13497;BMP180;6820;49.374;8.452;2022-12-29T19:19:39;100158.44;;;16.64
13497;BMP180;6820;49.374;8.452;2022-12-29T19:23:41;100146.34;;;16.60
13497;BMP180;6820;49.374;8.452;2022-12-29T19:27:43;100151.34;;;16.57
13497;BMP180;6820;49.374;8.452;2022-12-29T19:31:45;100148.78;;;16.57
13497;BMP180;6820;49.374;8.452;2022-12-29T19:35:47;100137.69;;;16.57
13497;BMP180;6820;49.374;8.452;2022-12-29T19:39:49;100147.06;;;16.56
13497;BMP180;6820;49.374;8.452;2022-12-29T19:43:51;100147.16;;;16.59
13497;BMP180;6820;49.374;8.452;2022-12-29T19:47:52;100166.94;;;16.63
13497;BMP180;6820;49.374;8.452;2022-12-29T19:51:54;100172.84;;;16.62
13497;BMP180;6820;49.374;8.452;2022-12-29T19:55:56;100166.94;;;16.63
13497;BMP180;6820;49.374;8.452;2022-12-29T19:59:58;100166.94;;;16.63
13497;BMP180;6820;49.374;8.452;2022-12-29T20:03:59;100173.69;;;16.61
13497;BMP180;6820;49.374;8.452;2022-12-29T20:08:03;100184.78;;;16.62
13497;BMP180;6820;49.374;8.452;2022-12-29T20:12:05;100189.81;;;16.60
13497;BMP180;6820;49.374;8.452;2022-12-29T20:16:11;100198.31;;;16.59
13497;BMP180;6820;49.374;8.452;2022-12-29T20:20:14;100197.56;;;16.62
13497;BMP180;6820;49.374;8.452;2022-12-29T20:24:16;100211.13;;;16.59
13497;BMP180;6820;49.374;8.452;2022-12-29T20:28:17;100212.72;;;16.56
13497;BMP180;6820;49.374;8.452;2022-12-29T20:32:20;100225.41;;;16.53
13497;BMP180;6820;49.374;8.452;2022-12-29T20:36:30;100228.81;;;16.53
13497;BMP180;6820;49.374;8.452;2022-12-29T20:40:34;100222.78;;;16.51
13497;BMP180;6820;49.374;8.452;2022-12-29T20:44:44;100231.28;;;16.50
13497;BMP180;6820;49.374;8.452;2022-12-29T20:48:47;100225.31;;;16.50
13497;BMP180;6820;49.374;8.452;2022-12-29T20:52:49;100232.16;;;16.51
13497;BMP180;6820;49.374;8.452;2022-12-29T20:56:51;100217.75;;;16.54
13497;BMP180;6820;49.374;8.452;2022-12-29T21:00:54;100223.72;;;16.53
13497;BMP180;6820;49.374;8.452;2022-12-29T21:04:56;100237.53;;;16.58
13497;BMP180;6820;49.374;8.452;2022-12-29T21:09:17;100239.34;;;16.61
13497;BMP180;6820;49.374;8.452;2022-12-29T21:13:20;100239.38;;;16.62
13497;BMP180;6820;49.374;8.452;2022-12-29T21:17:22;100242.00;;;16.64
13497;BMP180;6820;49.374;8.452;2022-12-29T21:21:24;100242.69;;;16.60
13497;BMP180;6820;49.374;8.452;2022-12-29T21:25:27;100257.84;;;16.54
13497;BMP180;6820;49.374;8.452;2022-12-29T21:29:37;100255.94;;;16.48
13497;BMP180;6820;49.374;8.452;2022-12-29T21:33:38;100258.41;;;16.47
13497;BMP180;6820;49.374;8.452;2022-12-29T21:37:40;100260.00;;;16.44
13497;BMP180;6820;49.374;8.452;2022-12-29T21:41:42;100259.91;;;16.41
13497;BMP180;6820;49.374;8.452;2022-12-29T21:45:48;100250.50;;;16.40
13497;BMP180;6820;49.374;8.452;2022-12-29T21:49:50;100264.16;;;16.40
13497;BMP180;6820;49.374;8.452;2022-12-29T21:53:57;100284.53;;;16.39
13497;BMP180;6820;49.374;8.452;2022-12-29T21:58:18;100292.94;;;16.35
13497;BMP180;6820;49.374;8.452;2022-12-29T22:02:38;100296.25;;;16.32
13497;BMP180;6820;49.374;8.452;2022-12-29T22:07:00;100296.28;;;16.34
13497;BMP180;6820;49.374;8.452;2022-12-29T22:11:21;100306.69;;;16.38
13497;BMP180;6820;49.374;8.452;2022-12-29T22:15:40;100312.00;;;16.43
13497;BMP180;6820;49.374;8.452;2022-12-29T22:19:42;100318.94;;;16.46
13497;BMP180;6820;49.374;8.452;2022-12-29T22:23:44;100328.38;;;16.47
13497;BMP180;6820;49.374;8.452;2022-12-29T22:27:45;100330.22;;;16.51
13497;BMP180;6820;49.374;8.452;2022-12-29T22:31:47;100324.03;;;16.45
13497;BMP180;6820;49.374;8.452;2022-12-29T22:35:48;100333.13;;;16.39
13497;BMP180;6820;49.374;8.452;2022-12-29T22:39:50;100328.63;;;16.32
13497;BMP180;6820;49.374;8.452;2022-12-29T22:43:53;100349.66;;;16.25
13497;BMP180;6820;49.374;8.452;2022-12-29T22:47:55;100361.50;;;16.23
13497;BMP180;6820;49.374;8.452;2022-12-29T22:51:56;100369.06;;;16.20
13497;BMP180;6820;49.374;8.452;2022-12-29T22:56:07;100372.34;;;16.16
13497;BMP180;6820;49.374;8.452;2022-12-29T23:00:09;100382.22;;;16.09
13497;BMP180;6820;49.374;8.452;2022-12-29T23:04:11;100382.28;;;16.10
13497;BMP180;6820;49.374;8.452;2022-12-29T23:08:35;100388.47;;;16.15
13497;BMP180;6820;49.374;8.452;2022-12-29T23:12:37;100384.28;;;16.17
13497;BMP180;6820;49.374;8.452;2022-12-29T23:16:39;100388.47;;;16.15
13497;BMP180;6820;49.374;8.452;2022-12-29T23:20:40;100387.34;;;16.09
13497;BMP180;6820;49.374;8.452;2022-12-29T23:24:42;100376.81;;;16.01
13497;BMP180;6820;49.374;8.452;2022-12-29T23:28:44;100378.16;;;15.92
13497;BMP180;6820;49.374;8.452;2022-12-29T23:32:45;100386.38;;;15.85
13497;BMP180;6820;49.374;8.452;2022-12-29T23:36:47;100391.25;;;15.79
13497;BMP180;6820;49.374;8.452;2022-12-29T23:40:49;100399.56;;;15.75
13497;BMP180;6820;49.374;8.452;2022-12-29T23:44:50;100405.47;;;15.73
13497;BMP180;6820;49.374;8.452;2022-12-29T23:48:52;100401.97;;;15.71
13497;BMP180;6820;49.374;8.452;2022-12-29T23:52:54;100412.94;;;15.68
13497;BMP180;6820;49.374;8.452;2022-12-29T23:56:55;100422.03;;;15.62
